Time;durP1;ratioP1;P1;durP2;ratioP2;P2;SDS_P1;SDS_P2;PMS_P1;PMS_P2;Temp;Humidity;BMP_temperature;BMP_pressure;BME280_temperature;BME280_humidity;BME280_pressure;Samples;Min_cycle;Max_cycle;Signal;HPM_P1;HPM_P2
2021/06/02 00:02:21;;;;;;;5.00;3.47;;;15.70;94.30;;;;;;4795481;29;20519;-85
2021/06/02 00:04:48;;;;;;;4.28;3.30;;;15.70;94.40;;;;;;4792315;29;20093;-85
2021/06/02 00:07:20;;;;;;;6.60;3.63;;;15.70;94.60;;;;;;4790674;29;20055;-84
2021/06/02 00:09:47;;;;;;;7.07;3.75;;;15.60;94.90;;;;;;4775414;29;20043;-84
2021/06/02 00:12:13;;;;;;;7.68;3.83;;;15.70;95.10;;;;;;4791013;29;20028;-84
2021/06/02 00:14:40;;;;;;;9.50;3.90;;;15.80;95.20;;;;;;4793900;29;20079;-84
2021/06/02 00:17:07;;;;;;;9.73;4.15;;;15.90;95.50;;;;;;4793397;29;20080;-85
2021/06/02 00:19:34;;;;;;;7.03;4.20;;;16.00;95.50;;;;;;4776267;29;20490;-84
2021/06/02 00:22:01;;;;;;;8.63;4.22;;;16.10;95.40;;;;;;4792263;29;20027;-84
2021/06/02 00:24:28;;;;;;;11.55;4.63;;;16.20;95.20;;;;;;4792951;29;20098;-84
2021/06/02 00:26:56;;;;;;;8.75;4.78;;;16.20;95.00;;;;;;4794053;29;20112;-84
2021/06/02 00:29:29;;;;;;;10.05;4.57;;;16.30;94.90;;;;;;4777165;29;20039;-84
2021/06/02 00:31:56;;;;;;;11.70;4.45;;;16.30;95.00;;;;;;4768683;30;20046;-85
2021/06/02 00:34:23;;;;;;;5.28;3.22;;;16.30;95.30;;;;;;4780908;30;20086;-84
2021/06/02 00:36:49;;;;;;;7.82;3.35;;;16.30;95.30;;;;;;4790161;29;20082;-85
2021/06/02 00:39:16;;;;;;;10.48;3.72;;;16.20;94.70;;;;;;4790095;29;20039;-84
2021/06/02 00:41:44;;;;;;;6.03;3.40;;;15.70;95.30;;;;;;4774720;30;20060;-84
2021/06/02 00:44:16;;;;;;;7.63;4.07;;;15.50;95.80;;;;;;4775164;30;20048;-85
2021/06/02 00:46:44;;;;;;;15.65;4.38;;;15.30;96.30;;;;;;4774015;29;20098;-84
2021/06/02 00:49:15;;;;;;;6.20;3.72;;;15.20;96.40;;;;;;4782264;29;20031;-84
2021/06/02 00:51:46;;;;;;;6.28;4.03;;;15.00;96.90;;;;;;4793051;29;20490;-84
2021/06/02 00:54:13;;;;;;;9.48;4.25;;;15.10;97.30;;;;;;4778553;30;20027;-84
2021/06/02 00:56:49;;;;;;;6.68;3.55;;;15.10;97.70;;;;;;4794696;29;20463;-84
2021/06/02 00:59:18;;;;;;;7.53;3.40;;;15.10;97.90;;;;;;4783928;29;20031;-84
2021/06/02 01:01:45;;;;;;;9.27;4.88;;;15.20;97.90;;;;;;4791751;29;20075;-84
2021/06/02 01:04:12;;;;;;;6.85;4.18;;;15.20;98.00;;;;;;4788685;29;20048;-83
2021/06/02 01:06:43;;;;;;;7.20;3.85;;;15.30;98.00;;;;;;4775982;30;20063;-84
2021/06/02 01:09:09;;;;;;;8.48;3.88;;;15.30;97.90;;;;;;4776399;29;20028;-84
2021/06/02 01:11:35;;;;;;;6.53;3.67;;;15.40;97.70;;;;;;4791134;29;20126;-84
2021/06/02 01:14:03;;;;;;;12.27;4.30;;;15.50;97.50;;;;;;4794786;29;20055;-84
2021/06/02 01:16:33;;;;;;;12.05;4.35;;;15.40;97.50;;;;;;4768196;30;20493;-84
2021/06/02 01:18:59;;;;;;;7.85;3.78;;;15.40;97.60;;;;;;4787997;29;20046;-84
2021/06/02 01:21:28;;;;;;;7.03;4.32;;;15.40;97.60;;;;;;4772790;30;20093;-84
2021/06/02 01:23:58;;;;;;;9.00;4.38;;;15.40;97.70;;;;;;4793193;29;20099;-83
2021/06/02 01:26:26;;;;;;;9.40;4.72;;;15.30;97.60;;;;;;4755048;30;20031;-84
2021/06/02 01:28:53;;;;;;;8.77;4.20;;;15.30;97.90;;;;;;4770030;30;20032;-85
2021/06/02 01:31:44;;;;;;;7.88;4.50;;;15.20;97.90;;;;;;4769784;30;20098;-84
2021/06/02 01:34:09;;;;;;;10.18;3.67;;;15.20;98.10;;;;;;4770297;30;20044;-84
2021/06/02 01:36:59;;;;;;;5.93;3.50;;;15.20;98.10;;;;;;4774129;30;20062;-84
2021/06/02 01:40:02;;;;;;;6.78;4.28;;;15.30;97.80;;;;;;4788463;29;20040;-85
2021/06/02 01:43:13;;;;;;;7.10;4.30;;;15.10;98.10;;;;;;4790873;29;20040;-84
2021/06/02 01:46:04;;;;;;;8.52;3.97;;;15.00;98.20;;;;;;4790230;29;20040;-84
2021/06/02 01:48:35;;;;;;;4.60;3.17;;;15.20;98.00;;;;;;4786853;29;20048;-84
2021/06/02 01:51:34;;;;;;;9.02;2.97;;;15.20;97.80;;;;;;4772972;30;20035;-84
2021/06/02 01:54:37;;;;;;;6.38;3.05;;;15.20;97.80;;;;;;4786092;29;20142;-84
2021/06/02 01:57:31;;;;;;;18.20;4.53;;;15.20;97.70;;;;;;4756817;30;20104;-84
2021/06/02 02:00:34;;;;;;;5.07;3.40;;;15.10;97.80;;;;;;4786614;29;20063;-84
2021/06/02 02:03:06;;;;;;;7.07;3.17;;;15.00;98.00;;;;;;4786615;29;20055;-84
2021/06/02 02:06:03;;;;;;;5.78;3.05;;;15.00;98.30;;;;;;4786236;29;20079;-85
2021/06/02 02:08:55;;;;;;;11.32;4.57;;;15.10;98.30;;;;;;4786200;30;20490;-85
2021/06/02 02:11:28;;;;;;;5.05;2.75;;;15.00;98.00;;;;;;4786457;29;20036;-85
2021/06/02 02:14:07;;;;;;;7.00;2.60;;;15.10;98.10;;;;;;4786786;29;20162;-85
2021/06/02 02:17:00;;;;;;;6.53;2.97;;;15.10;97.90;;;;;;4786474;29;20039;-84
2021/06/02 02:19:45;;;;;;;5.68;3.20;;;15.10;97.90;;;;;;4786588;29;20413;-84
2021/06/02 02:22:35;;;;;;;6.53;3.05;;;15.20;97.70;;;;;;4771530;30;20172;-84
2021/06/02 02:25:04;;;;;;;7.63;3.95;;;15.30;97.40;;;;;;4771216;30;20516;-84
2021/06/02 02:27:53;;;;;;;5.75;3.75;;;15.30;97.50;;;;;;4786516;29;20038;-85
2021/06/02 02:30:50;;;;;;;6.07;3.40;;;15.40;97.30;;;;;;4786364;29;20035;-85
2021/06/02 02:33:48;;;;;;;6.82;3.00;;;15.40;97.40;;;;;;4786249;29;20035;-84
2021/06/02 02:36:17;;;;;;;4.30;2.40;;;15.30;97.50;;;;;;4770835;30;20059;-84
2021/06/02 02:39:20;;;;;;;3.10;2.35;;;15.30;97.60;;;;;;4786441;29;20027;-84
2021/06/02 02:42:04;;;;;;;4.43;2.75;;;15.20;97.70;;;;;;4784217;29;20486;-84
2021/06/02 02:44:58;;;;;;;6.45;2.58;;;15.10;97.70;;;;;;4786832;29;20078;-84
2021/06/02 02:47:27;;;;;;;3.50;2.67;;;15.10;97.70;;;;;;4779690;30;20047;-85
2021/06/02 02:50:19;;;;;;;5.40;2.78;;;15.10;97.80;;;;;;4786270;29;20070;-84
2021/06/02 02:53:14;;;;;;;5.13;2.45;;;15.10;97.90;;;;;;4786051;29;20058;-85
2021/06/02 02:55:40;;;;;;;3.88;2.40;;;15.10;98.00;;;;;;4801025;29;20040;-84
2021/06/02 02:58:06;;;;;;;4.72;2.55;;;15.00;98.20;;;;;;4785558;29;20067;-84
2021/06/02 03:01:01;;;;;;;6.45;3.00;;;15.10;98.00;;;;;;4771072;30;20433;-85
2021/06/02 03:03:41;;;;;;;5.57;2.28;;;15.10;97.80;;;;;;4756061;30;20042;-85
2021/06/02 03:06:18;;;;;;;3.83;2.10;;;15.10;97.70;;;;;;4770926;30;20055;-84
2021/06/02 03:09:02;;;;;;;4.93;2.45;;;15.10;97.70;;;;;;4770573;30;20027;-85
2021/06/02 03:11:49;;;;;;;3.83;2.03;;;15.10;97.80;;;;;;4785803;29;20040;-84
2021/06/02 03:14:19;;;;;;;4.90;2.58;;;15.20;97.70;;;;;;4785579;29;20510;-85
2021/06/02 03:16:58;;;;;;;4.50;3.03;;;15.30;97.60;;;;;;4770594;30;20119;-85
2021/06/02 03:19:40;;;;;;;6.28;2.88;;;15.40;97.40;;;;;;4767801;30;20028;-84
2021/06/02 03:22:14;;;;;;;5.68;2.33;;;15.20;97.20;;;;;;4767425;30;20106;-84
2021/06/02 03:25:13;;;;;;;7.07;2.90;;;15.20;97.20;;;;;;4752667;30;20040;-85
2021/06/02 03:28:03;;;;;;;5.53;2.50;;;15.10;97.30;;;;;;4770533;30;20039;-84
2021/06/02 03:30:40;;;;;;;7.03;2.67;;;15.20;97.20;;;;;;4770409;30;20044;-85
2021/06/02 03:33:30;;;;;;;5.80;2.92;;;15.30;97.00;;;;;;4785167;30;20095;-84
2021/06/02 03:36:02;;;;;;;7.35;3.30;;;15.40;96.70;;;;;;4784964;29;20146;-84
2021/06/02 03:38:35;;;;;;;4.80;2.67;;;15.40;96.60;;;;;;4770119;30;20482;-84
2021/06/02 03:41:32;;;;;;;5.05;3.22;;;15.50;96.50;;;;;;4784110;29;20093;-84
2021/06/02 03:44:37;;;;;;;5.88;2.95;;;15.60;96.30;;;;;;4785128;29;20044;-85
2021/06/02 03:47:40;;;;;;;12.25;3.45;;;15.60;95.80;;;;;;4769896;30;20056;-85
2021/06/02 03:50:17;;;;;;;7.18;3.55;;;15.60;95.10;;;;;;4785124;29;20042;-85
2021/06/02 03:52:48;;;;;;;4.25;3.00;;;15.50;95.00;;;;;;4785076;29;20027;-85
2021/06/02 03:55:38;;;;;;;5.05;3.50;;;15.30;95.20;;;;;;4769990;30;20107;-84
2021/06/02 03:58:21;;;;;;;10.43;3.60;;;15.20;95.40;;;;;;4772838;30;20049;-85
2021/06/02 04:00:59;;;;;;;4.25;3.13;;;15.10;95.60;;;;;;4767377;30;20388;-85
2021/06/02 04:03:34;;;;;;;8.35;3.42;;;15.00;95.60;;;;;;4767142;30;20040;-84
2021/06/02 04:06:12;;;;;;;7.10;3.60;;;14.70;95.90;;;;;;4766848;30;20068;-84
2021/06/02 04:08:45;;;;;;;9.05;4.88;;;14.60;96.50;;;;;;4752208;30;20119;-85
2021/06/02 04:11:21;;;;;;;8.50;4.45;;;14.70;96.40;;;;;;4766928;30;20051;-85
2021/06/02 04:14:02;;;;;;;13.90;6.35;;;14.70;95.90;;;;;;4752020;30;20033;-86
2021/06/02 04:16:30;;;;;;;10.65;6.43;;;14.70;96.00;;;;;;4753004;30;20486;-84
2021/06/02 04:19:19;;;;;;;14.38;7.32;;;14.80;95.80;;;;;;4784600;29;20035;-84
2021/06/02 04:21:46;;;;;;;17.65;9.70;;;14.80;95.60;;;;;;4751696;30;20383;-85
2021/06/02 04:24:14;;;;;;;21.60;9.60;;;14.90;95.70;;;;;;4769444;30;20032;-77
2021/06/02 04:26:40;;;;;;;27.30;9.75;;;15.00;95.60;;;;;;4769451;30;20074;-80
2021/06/02 04:29:09;;;;;;;25.35;10.82;;;14.90;95.90;;;;;;4769470;30;20024;-79
2021/06/02 04:31:50;;;;;;;32.95;12.65;;;15.00;96.00;;;;;;4769537;30;20027;-79
2021/06/02 04:34:17;;;;;;;27.80;11.43;;;15.00;96.00;;;;;;4766335;30;20416;-78
2021/06/02 04:36:45;;;;;;;15.45;5.80;;;15.00;96.10;;;;;;4776092;29;20086;-77
2021/06/02 04:39:11;;;;;;;7.68;4.07;;;15.00;96.20;;;;;;4790522;29;20039;-77
2021/06/02 04:41:40;;;;;;;7.07;3.50;;;14.90;96.30;;;;;;4778536;29;20051;-78
2021/06/02 04:44:11;;;;;;;6.22;3.17;;;14.80;96.50;;;;;;4773588;29;20044;-78
2021/06/02 04:46:37;;;;;;;4.47;2.40;;;15.00;96.70;;;;;;4775868;29;20034;-80
2021/06/02 04:49:03;;;;;;;7.20;3.33;;;15.00;96.80;;;;;;4777770;30;20035;-80
2021/06/02 04:52:01;;;;;;;5.30;2.65;;;15.00;96.60;;;;;;4780248;29;20501;-79
2021/06/02 04:54:47;;;;;;;6.85;2.92;;;15.00;96.80;;;;;;4776089;30;20035;-77
2021/06/02 04:57:50;;;;;;;9.73;3.38;;;15.10;97.10;;;;;;4775432;30;20069;-79
2021/06/02 05:00:28;;;;;;;6.20;3.05;;;15.10;97.40;;;;;;4778340;30;20455;-78
2021/06/02 05:03:31;;;;;;;4.63;2.80;;;15.30;97.50;;;;;;4777716;30;20031;-77
2021/06/02 05:06:03;;;;;;;7.32;3.17;;;15.50;97.50;;;;;;4773768;30;20040;-77
2021/06/02 05:09:02;;;;;;;5.32;3.60;;;15.60;97.70;;;;;;4777573;30;20035;-78
2021/06/02 05:11:43;;;;;;;9.50;3.83;;;15.80;97.70;;;;;;4777171;30;20059;-77
2021/06/02 05:14:30;;;;;;;7.05;3.40;;;15.90;97.60;;;;;;4772558;30;20040;-77
2021/06/02 05:17:11;;;;;;;6.63;3.88;;;16.10;98.00;;;;;;4776342;29;20042;-77
2021/06/02 05:20:23;;;;;;;4.28;3.10;;;16.30;97.90;;;;;;4776379;29;20107;-77
2021/06/02 05:23:26;;;;;;;4.07;2.38;;;16.50;98.30;;;;;;4778225;29;20056;-77
2021/06/02 05:26:10;;;;;;;6.43;2.55;;;16.70;99.00;;;;;;4777509;29;20054;-77
2021/06/02 05:29:13;;;;;;;6.15;2.67;;;16.80;99.20;;;;;;4790563;29;20043;-78
2021/06/02 05:32:07;;;;;;;5.63;2.75;;;17.00;99.40;;;;;;4776717;29;20097;-77
2021/06/02 05:34:52;;;;;;;;;;;17.10;99.30;;;;;;4777468;30;20067;-77
2021/06/02 05:37:32;;;;;;;3.78;2.33;;;17.20;99.30;;;;;;4776212;29;19936;-78
2021/06/02 05:40:23;;;;;;;5.55;2.80;;;17.30;99.30;;;;;;4779125;30;20482;-77
2021/06/02 05:43:13;;;;;;;6.13;3.08;;;17.40;99.00;;;;;;4774857;30;20397;-77
2021/06/02 05:46:19;;;;;;;4.80;2.53;;;17.40;99.10;;;;;;4773232;30;20040;-78
2021/06/02 05:49:06;;;;;;;3.22;2.40;;;17.50;99.00;;;;;;4755336;30;20039;-77
2021/06/02 05:52:10;;;;;;;4.10;2.40;;;17.50;98.90;;;;;;4775897;30;20036;-77
2021/06/02 05:55:01;;;;;;;3.42;1.80;;;17.60;98.80;;;;;;4776012;30;20027;-76
2021/06/02 05:57:49;;;;;;;10.93;2.45;;;17.70;98.90;;;;;;4774766;29;20047;-77
2021/06/02 06:00:48;;;;;;;4.63;2.22;;;17.70;98.40;;;;;;4776782;29;20031;-77
2021/06/02 06:03:44;;;;;;;5.88;2.50;;;17.70;98.40;;;;;;4776189;29;20027;-77
2021/06/02 06:06:48;;;;;;;7.40;2.95;;;17.80;98.40;;;;;;4780418;30;20051;-77
2021/06/02 06:09:57;;;;;;;7.45;2.33;;;17.90;98.40;;;;;;4777139;30;20031;-77
2021/06/02 06:12:57;;;;;;;3.65;2.28;;;17.90;98.00;;;;;;4750333;30;20104;-76
2021/06/02 06:15:41;;;;;;;7.25;2.83;;;17.90;97.90;;;;;;4793335;29;20445;-77
2021/06/02 06:18:44;;;;;;;5.40;2.70;;;18.00;97.80;;;;;;4775354;29;20040;-77
2021/06/02 06:21:39;;;;;;;5.15;2.72;;;18.00;97.40;;;;;;4778972;30;20027;-77
2021/06/02 06:24:14;;;;;;;4.55;2.03;;;18.10;97.50;;;;;;4780935;29;20052;-77
2021/06/02 06:26:45;;;;;;;5.03;2.20;;;18.10;97.50;;;;;;4778808;30;20035;-79
2021/06/02 06:29:53;;;;;;;6.40;2.72;;;18.20;97.30;;;;;;4777479;30;20085;-76
2021/06/02 06:32:21;;;;;;;3.95;2.33;;;18.20;96.80;;;;;;4776590;29;20062;-78
2021/06/02 06:34:48;;;;;;;4.40;2.58;;;18.30;96.60;;;;;;4794730;29;20063;-81
2021/06/02 06:37:17;;;;;;;7.07;2.40;;;18.40;96.50;;;;;;4781294;30;20043;-79
2021/06/02 06:39:56;;;;;;;5.18;2.33;;;18.50;96.00;;;;;;4777830;29;20035;-77
2021/06/02 06:42:28;;;;;;;4.43;2.30;;;18.50;95.60;;;;;;4781100;29;20114;-78
2021/06/02 06:44:58;;;;;;;5.50;2.15;;;18.50;95.20;;;;;;4790984;29;20055;-77
2021/06/02 06:47:25;;;;;;;7.35;2.88;;;18.50;95.30;;;;;;4776216;30;20501;-77
2021/06/02 06:49:56;;;;;;;5.68;2.60;;;18.70;94.90;;;;;;4782022;30;20114;-77
2021/06/02 06:52:24;;;;;;;4.07;2.55;;;18.80;94.60;;;;;;4779532;29;20109;-78
2021/06/02 06:54:54;;;;;;;2.60;1.95;;;18.90;92.80;;;;;;4779379;29;20032;-78
2021/06/02 06:57:21;;;;;;;3.97;2.35;;;18.90;93.10;;;;;;4777919;30;20042;-76
2021/06/02 06:59:48;;;;;;;5.15;2.90;;;19.10;93.90;;;;;;4778516;30;20039;-77
2021/06/02 07:02:15;;;;;;;3.75;2.33;;;19.00;93.50;;;;;;4790939;29;20040;-74
2021/06/02 07:04:42;;;;;;;5.38;2.42;;;19.20;92.60;;;;;;4775070;29;20493;-77
2021/06/02 07:07:09;;;;;;;4.75;2.33;;;19.20;91.50;;;;;;4775453;30;20540;-75
2021/06/02 07:09:35;;;;;;;7.38;2.60;;;19.30;91.20;;;;;;4780180;30;20042;-76
2021/06/02 07:12:02;;;;;;;3.55;2.03;;;19.30;91.00;;;;;;4781788;29;20453;-77
2021/06/02 07:14:29;;;;;;;6.75;2.22;;;19.40;91.10;;;;;;4775699;29;20040;-75
2021/06/02 07:17:03;;;;;;;5.18;2.30;;;19.60;91.40;;;;;;4776886;29;20385;-76
2021/06/02 07:19:31;;;;;;;3.08;2.33;;;19.80;91.10;;;;;;4778506;30;20097;-75
2021/06/02 07:21:58;;;;;;;3.85;1.98;;;19.80;88.10;;;;;;4774962;29;20430;-76
2021/06/02 07:24:25;;;;;;;5.72;2.10;;;19.90;86.90;;;;;;4774265;30;20050;-76
2021/06/02 07:26:51;;;;;;;2.88;2.20;;;19.90;88.40;;;;;;4779972;29;20034;-76
2021/06/02 07:29:20;;;;;;;7.82;3.25;;;20.00;88.30;;;;;;4772969;29;20714;-76
2021/06/02 07:31:46;;;;;;;4.88;2.35;;;20.10;88.00;;;;;;4780953;30;20036;-76
2021/06/02 07:34:12;;;;;;;4.07;2.27;;;20.10;87.90;;;;;;4778088;30;20517;-76
2021/06/02 07:36:38;;;;;;;6.50;3.47;;;20.30;86.90;;;;;;4777302;29;20282;-76
2021/06/02 07:39:05;;;;;;;3.10;2.22;;;20.30;85.10;;;;;;4773294;29;20024;-76
2021/06/02 07:41:31;;;;;;;4.40;2.22;;;20.40;85.10;;;;;;4780991;30;20491;-75
2021/06/02 07:43:57;;;;;;;4.30;2.67;;;20.50;83.70;;;;;;4778333;29;20027;-77
2021/06/02 07:46:23;;;;;;;2.90;1.65;;;20.60;82.00;;;;;;4790114;29;20092;-76
2021/06/02 07:48:51;;;;;;;6.22;1.90;;;20.70;79.90;;;;;;4780804;29;20027;-76
2021/06/02 07:51:17;;;;;;;5.32;1.90;;;20.80;80.00;;;;;;4774966;29;20088;-76
2021/06/02 07:53:44;;;;;;;2.10;1.60;;;20.80;76.60;;;;;;4789374;29;20379;-76
2021/06/02 07:56:09;;;;;;;2.53;2.30;;;20.80;75.70;;;;;;4776805;29;20039;-76
2021/06/02 07:58:35;;;;;;;4.03;2.10;;;20.90;76.80;;;;;;4773629;30;20024;-76
2021/06/02 08:01:01;;;;;;;2.73;2.20;;;21.00;77.50;;;;;;4781061;29;20548;-77
2021/06/02 08:03:27;;;;;;;3.30;2.17;;;21.10;78.10;;;;;;4776621;30;20036;-77
2021/06/02 08:05:53;;;;;;;6.85;1.95;;;21.10;78.50;;;;;;4778073;30;20501;-77
2021/06/02 08:08:19;;;;;;;5.13;1.80;;;21.10;75.60;;;;;;4776674;30;20044;-79
2021/06/02 08:10:45;;;;;;;6.50;1.88;;;21.20;75.40;;;;;;4781133;29;20074;-78
2021/06/02 08:13:11;;;;;;;3.33;1.80;;;21.20;74.50;;;;;;4778941;29;20039;-77
2021/06/02 08:15:37;;;;;;;2.70;2.13;;;21.40;73.10;;;;;;4791269;29;20035;-77
2021/06/02 08:18:05;;;;;;;4.50;1.93;;;21.50;73.60;;;;;;4777716;30;20284;-78
2021/06/02 08:20:31;;;;;;;3.63;1.70;;;21.70;75.00;;;;;;4775138;30;20042;-77
2021/06/02 08:22:57;;;;;;;5.07;1.80;;;21.70;72.90;;;;;;4778443;30;20039;-77
2021/06/02 08:25:22;;;;;;;3.73;2.10;;;21.70;75.80;;;;;;4776453;30;20044;-77
2021/06/02 08:27:49;;;;;;;4.43;1.92;;;21.60;76.50;;;;;;4777041;29;20088;-75
2021/06/02 08:30:15;;;;;;;4.22;1.80;;;21.70;75.80;;;;;;4775022;30;20112;-75
2021/06/02 08:32:41;;;;;;;4.85;1.60;;;21.80;75.60;;;;;;4770719;29;20033;-77
2021/06/02 08:35:09;;;;;;;2.90;2.00;;;21.70;75.50;;;;;;4781105;30;20479;-77
2021/06/02 08:37:35;;;;;;;11.18;2.10;;;21.90;76.00;;;;;;4791255;29;20078;-76
2021/06/02 08:40:02;;;;;;;3.25;1.88;;;22.10;76.10;;;;;;4775057;30;20036;-76
2021/06/02 08:42:28;;;;;;;2.53;1.92;;;22.10;76.00;;;;;;4775354;30;20036;-77
2021/06/02 08:44:54;;;;;;;2.55;1.58;;;22.30;76.40;;;;;;4776868;30;20042;-73
2021/06/02 08:47:21;;;;;;;5.87;2.00;;;22.40;76.20;;;;;;4782214;29;20027;-74
2021/06/02 08:49:47;;;;;;;2.55;1.50;;;22.20;75.50;;;;;;4776241;29;20290;-74
2021/06/02 08:52:13;;;;;;;10.02;2.47;;;21.90;76.20;;;;;;4775547;30;20497;-75
2021/06/02 08:54:39;;;;;;;3.97;1.65;;;21.80;76.10;;;;;;4787548;29;20086;-74
2021/06/02 08:57:07;;;;;;;2.85;1.80;;;21.70;74.60;;;;;;4777379;29;20039;-74
2021/06/02 08:59:33;;;;;;;9.70;2.30;;;21.60;71.90;;;;;;4776626;30;20107;-74
2021/06/02 09:01:59;;;;;;;2.10;1.55;;;21.60;72.90;;;;;;4773282;29;20032;-74
2021/06/02 09:04:26;;;;;;;7.88;2.45;;;21.70;74.50;;;;;;4792460;29;20081;-74
2021/06/02 09:06:53;;;;;;;2.97;1.50;;;22.00;75.00;;;;;;4776335;30;20386;-74
2021/06/02 09:09:20;;;;;;;3.78;1.60;;;22.40;75.20;;;;;;4777253;29;20062;-74
2021/06/02 09:11:48;;;;;;;3.88;1.52;;;22.60;74.80;;;;;;4776869;29;20043;-75
2021/06/02 09:14:29;;;;;;;5.68;1.90;;;22.80;73.90;;;;;;4776638;30;20513;-74
2021/06/02 09:16:58;;;;;;;2.38;1.70;;;23.10;74.30;;;;;;4777382;29;20040;-75
2021/06/02 09:19:44;;;;;;;2.58;1.70;;;23.50;74.90;;;;;;4776317;30;20032;-74
2021/06/02 09:22:13;;;;;;;1.95;1.70;;;23.70;75.20;;;;;;4788985;29;20135;-76
2021/06/02 09:24:51;;;;;;;2.08;1.30;;;23.80;70.70;;;;;;4790433;29;20071;-73
2021/06/02 09:27:19;;;;;;;2.58;2.35;;;23.80;71.70;;;;;;4776783;29;20042;-74
2021/06/02 09:29:48;;;;;;;1.95;1.60;;;23.90;72.60;;;;;;4777327;29;20067;-86
2021/06/02 09:32:20;;;;;;;4.10;1.75;;;24.10;73.30;;;;;;4773424;30;20040;-77
2021/06/02 09:34:47;;;;;;;1.70;1.60;;;24.30;73.50;;;;;;4776188;29;20466;-74
2021/06/02 09:37:13;;;;;;;3.55;1.52;;;24.40;71.70;;;;;;4775041;30;20087;-81
2021/06/02 09:39:41;;;;;;;2.83;1.98;;;24.70;70.00;;;;;;4772810;30;20499;-75
2021/06/02 09:42:18;;;;;;;2.65;1.45;;;24.60;67.40;;;;;;4779942;29;20745;-78
2021/06/02 09:45:01;;;;;;;1.60;1.48;;;24.70;70.00;;;;;;4781146;29;20043;-77
2021/06/02 09:47:41;;;;;;;3.42;1.60;;;24.80;69.90;;;;;;4778775;30;20066;-74
2021/06/02 09:50:07;;;;;;;5.57;1.65;;;25.10;68.80;;;;;;4778618;29;20032;-74
2021/06/02 09:52:40;;;;;;;3.30;1.70;;;25.30;66.10;;;;;;4778574;29;20067;-74
2021/06/02 09:55:15;;;;;;;2.60;1.77;;;25.40;67.50;;;;;;4779000;29;20028;-74
2021/06/02 09:57:41;;;;;;;4.03;2.67;;;24.90;69.60;;;;;;4780666;29;20039;-74
2021/06/02 10:00:10;;;;;;;3.15;2.10;;;25.00;70.50;;;;;;4778619;29;20035;-75
2021/06/02 10:02:39;;;;;;;2.95;2.00;;;24.90;66.60;;;;;;4782269;30;20036;-75
2021/06/02 10:05:07;;;;;;;4.22;2.83;;;24.80;69.20;;;;;;4778219;30;20043;-79
2021/06/02 10:07:42;;;;;;;3.80;2.83;;;24.70;70.70;;;;;;4778566;30;20031;-74
2021/06/02 10:10:19;;;;;;;6.40;3.53;;;25.20;72.40;;;;;;4776500;30;20067;-75
2021/06/02 10:13:10;;;;;;;7.65;4.22;;;25.50;72.40;;;;;;4784416;30;20035;-75
2021/06/02 10:15:41;;;;;;;5.97;3.90;;;25.60;68.70;;;;;;4777273;30;20096;-75
2021/06/02 10:18:22;;;;;;;7.13;3.50;;;25.90;67.70;;;;;;4780814;30;20032;-76
2021/06/02 10:21:08;;;;;;;4.57;2.80;;;26.00;67.00;;;;;;4776053;30;20104;-75
2021/06/02 10:23:40;;;;;;;4.93;3.30;;;25.90;67.70;;;;;;4779651;30;20127;-75
2021/06/02 10:26:08;;;;;;;3.83;2.95;;;26.20;67.30;;;;;;4778477;29;20481;-75
2021/06/02 10:28:35;;;;;;;6.55;3.67;;;26.20;67.10;;;;;;4781879;30;20043;-76
2021/06/02 10:31:03;;;;;;;4.82;2.70;;;26.40;65.90;;;;;;4780087;30;20031;-75
2021/06/02 10:33:30;;;;;;;5.75;3.20;;;26.40;64.90;;;;;;4796876;29;20121;-80
2021/06/02 10:35:57;;;;;;;5.93;2.75;;;26.20;65.70;;;;;;4771654;29;20062;-75
2021/06/02 10:38:25;;;;;;;4.80;2.88;;;25.70;65.30;;;;;;4775545;30;20046;-75
2021/06/02 10:40:52;;;;;;;2.67;1.92;;;25.90;64.70;;;;;;4779873;30;20694;-74
2021/06/02 10:43:21;;;;;;;2.63;2.08;;;25.60;63.10;;;;;;4791887;29;20497;-76
2021/06/02 10:45:49;;;;;;;1.90;1.70;;;25.60;63.60;;;;;;4776235;30;20047;-75
2021/06/02 10:48:15;;;;;;;4.05;2.00;;;25.70;62.80;;;;;;4774594;29;20403;-74
2021/06/02 10:50:44;;;;;;;2.25;1.83;;;25.80;64.60;;;;;;4765310;29;20047;-74
2021/06/02 10:53:21;;;;;;;1.90;1.50;;;25.80;62.80;;;;;;4777188;29;20043;-75
2021/06/02 10:55:59;;;;;;;1.60;1.50;;;26.00;62.70;;;;;;4781939;29;20027;-74
2021/06/02 10:58:45;;;;;;;3.17;1.50;;;25.90;62.50;;;;;;4777050;29;20449;-85
2021/06/02 11:01:12;;;;;;;2.20;2.00;;;26.30;60.90;;;;;;4780560;30;20126;-78
2021/06/02 11:03:44;;;;;;;1.58;1.48;;;26.00;59.90;;;;;;4761834;30;20596;-78
